sensor_id;sensor_type;location;lat;lon;timestamp;temperature;humidity
3053;DHT22;1536;51.098;6.414;2022-07-23T00:00:22;20.00;99.90
3053;DHT22;1536;51.098;6.414;2022-07-23T00:02:49;20.00;99.90
3053;DHT22;1536;51.098;6.414;2022-07-23T00:05:16;20.00;99.90
3053;DHT22;1536;51.098;6.414;2022-07-23T00:07:43;20.00;99.90
3053;DHT22;1536;51.098;6.414;2022-07-23T00:10:09;19.90;99.90
3053;DHT22;1536;51.098;6.414;2022-07-23T00:12:37;19.90;99.90
3053;DHT22;1536;51.098;6.414;2022-07-23T00:15:06;19.90;99.90
3053;DHT22;1536;51.098;6.414;2022-07-23T00:17:35;19.90;99.90
3053;DHT22;1536;51.098;6.414;2022-07-23T00:20:02;19.90;99.90
3053;DHT22;1536;51.098;6.414;2022-07-23T00:22:29;19.90;99.90
3053;DHT22;1536;51.098;6.414;2022-07-23T00:24:56;19.90;99.90
3053;DHT22;1536;51.098;6.414;2022-07-23T00:27:23;19.90;99.90
3053;DHT22;1536;51.098;6.414;2022-07-23T00:29:51;19.90;99.90
3053;DHT22;1536;51.098;6.414;2022-07-23T00:32:19;19.80;99.90
3053;DHT22;1536;51.098;6.414;2022-07-23T00:34:47;19.80;99.90
3053;DHT22;1536;51.098;6.414;2022-07-23T00:37:14;19.80;99.90
3053;DHT22;1536;51.098;6.414;2022-07-23T00:39:40;19.80;99.90
3053;DHT22;1536;51.098;6.414;2022-07-23T00:42:07;19.70;99.90
3053;DHT22;1536;51.098;6.414;2022-07-23T00:44:34;19.80;99.90
3053;DHT22;1536;51.098;6.414;2022-07-23T00:47:01;19.80;99.90
3053;DHT22;1536;51.098;6.414;2022-07-23T00:49:29;19.70;99.90
3053;DHT22;1536;51.098;6.414;2022-07-23T00:52:01;19.70;99.90
3053;DHT22;1536;51.098;6.414;2022-07-23T00:54:28;19.70;99.90
3053;DHT22;1536;51.098;6.414;2022-07-23T00:56:55;19.70;99.90
3053;DHT22;1536;51.098;6.414;2022-07-23T00:59:22;19.70;99.90
3053;DHT22;1536;51.098;6.414;2022-07-23T01:01:49;19.70;99.90
3053;DHT22;1536;51.098;6.414;2022-07-23T01:04:17;19.70;99.90
3053;DHT22;1536;51.098;6.414;2022-07-23T01:06:44;19.70;99.90
3053;DHT22;1536;51.098;6.414;2022-07-23T01:09:12;19.70;99.90
3053;DHT22;1536;51.098;6.414;2022-07-23T01:11:41;19.70;99.90
3053;DHT22;1536;51.098;6.414;2022-07-23T01:14:09;19.60;99.90
3053;DHT22;1536;51.098;6.414;2022-07-23T01:16:36;19.60;99.90
3053;DHT22;1536;51.098;6.414;2022-07-23T01:19:03;19.60;99.90
3053;DHT22;1536;51.098;6.414;2022-07-23T01:21:34;19.60;99.90
3053;DHT22;1536;51.098;6.414;2022-07-23T01:24:03;19.60;99.90
3053;DHT22;1536;51.098;6.414;2022-07-23T01:26:30;19.60;99.90
3053;DHT22;1536;51.098;6.414;2022-07-23T01:28:57;19.70;99.90
3053;DHT22;1536;51.098;6.414;2022-07-23T01:31:24;19.70;99.90
3053;DHT22;1536;51.098;6.414;2022-07-23T01:33:51;19.70;99.90
3053;DHT22;1536;51.098;6.414;2022-07-23T01:36:18;19.70;99.90
3053;DHT22;1536;51.098;6.414;2022-07-23T01:38:45;19.70;99.90
3053;DHT22;1536;51.098;6.414;2022-07-23T01:41:13;19.70;99.90
3053;DHT22;1536;51.098;6.414;2022-07-23T01:43:40;19.60;99.90
3053;DHT22;1536;51.098;6.414;2022-07-23T01:46:08;19.60;99.90
3053;DHT22;1536;51.098;6.414;2022-07-23T01:48:34;19.60;99.90
3053;DHT22;1536;51.098;6.414;2022-07-23T01:51:02;19.50;99.90
3053;DHT22;1536;51.098;6.414;2022-07-23T01:53:29;19.50;99.90
3053;DHT22;1536;51.098;6.414;2022-07-23T01:55:56;19.50;99.90
3053;DHT22;1536;51.098;6.414;2022-07-23T01:58:25;19.40;99.90
3053;DHT22;1536;51.098;6.414;2022-07-23T02:00:52;19.40;99.90
3053;DHT22;1536;51.098;6.414;2022-07-23T02:03:18;19.40;99.90
3053;DHT22;1536;51.098;6.414;2022-07-23T02:05:45;19.30;99.90
3053;DHT22;1536;51.098;6.414;2022-07-23T02:08:12;19.20;99.90
3053;DHT22;1536;51.098;6.414;2022-07-23T02:10:39;19.10;99.90
3053;DHT22;1536;51.098;6.414;2022-07-23T02:13:06;19.10;99.90
3053;DHT22;1536;51.098;6.414;2022-07-23T02:15:34;19.10;99.90
3053;DHT22;1536;51.098;6.414;2022-07-23T02:18:02;19.10;99.90
3053;DHT22;1536;51.098;6.414;2022-07-23T02:20:28;19.10;99.90
3053;DHT22;1536;51.098;6.414;2022-07-23T02:22:55;19.10;99.90
3053;DHT22;1536;51.098;6.414;2022-07-23T02:25:22;18.90;99.90
3053;DHT22;1536;51.098;6.414;2022-07-23T02:27:49;18.90;99.90
3053;DHT22;1536;51.098;6.414;2022-07-23T02:30:16;18.90;99.90
3053;DHT22;1536;51.098;6.414;2022-07-23T02:32:44;18.90;99.90
3053;DHT22;1536;51.098;6.414;2022-07-23T02:35:11;18.90;99.90
3053;DHT22;1536;51.098;6.414;2022-07-23T02:37:37;18.80;99.90
3053;DHT22;1536;51.098;6.414;2022-07-23T02:40:05;18.80;99.90
3053;DHT22;1536;51.098;6.414;2022-07-23T02:42:32;18.70;99.90
3053;DHT22;1536;51.098;6.414;2022-07-23T02:44:59;18.70;99.90
3053;DHT22;1536;51.098;6.414;2022-07-23T02:47:25;18.70;99.90
3053;DHT22;1536;51.098;6.414;2022-07-23T02:49:53;18.70;99.90
3053;DHT22;1536;51.098;6.414;2022-07-23T02:52:21;18.70;99.90
3053;DHT22;1536;51.098;6.414;2022-07-23T02:54:47;18.60;99.90
3053;DHT22;1536;51.098;6.414;2022-07-23T02:57:14;18.60;99.90
3053;DHT22;1536;51.098;6.414;2022-07-23T02:59:41;18.60;99.90
3053;DHT22;1536;51.098;6.414;2022-07-23T03:02:08;18.60;99.90
3053;DHT22;1536;51.098;6.414;2022-07-23T03:04:34;18.50;99.90
3053;DHT22;1536;51.098;6.414;2022-07-23T03:07:03;18.50;99.90
3053;DHT22;1536;51.098;6.414;2022-07-23T03:09:29;18.50;99.90
3053;DHT22;1536;51.098;6.414;2022-07-23T03:11:56;18.50;99.90
3053;DHT22;1536;51.098;6.414;2022-07-23T03:14:23;18.50;99.90
3053;DHT22;1536;51.098;6.414;2022-07-23T03:16:53;18.40;99.90
3053;DHT22;1536;51.098;6.414;2022-07-23T03:19:20;18.40;99.90
3053;DHT22;1536;51.098;6.414;2022-07-23T03:21:46;18.40;99.90
3053;DHT22;1536;51.098;6.414;2022-07-23T03:24:14;18.40;99.90
3053;DHT22;1536;51.098;6.414;2022-07-23T03:26:43;18.30;99.90
3053;DHT22;1536;51.098;6.414;2022-07-23T03:29:10;18.30;99.90
3053;DHT22;1536;51.098;6.414;2022-07-23T03:31:37;18.30;99.90
3053;DHT22;1536;51.098;6.414;2022-07-23T03:34:04;18.30;99.90
3053;DHT22;1536;51.098;6.414;2022-07-23T03:36:30;18.30;99.90
3053;DHT22;1536;51.098;6.414;2022-07-23T03:38:57;18.30;99.90
3053;DHT22;1536;51.098;6.414;2022-07-23T03:41:25;18.20;99.90
3053;DHT22;1536;51.098;6.414;2022-07-23T03:43:52;18.20;99.90
3053;DHT22;1536;51.098;6.414;2022-07-23T03:46:19;18.20;99.90
3053;DHT22;1536;51.098;6.414;2022-07-23T03:48:46;18.20;99.90
3053;DHT22;1536;51.098;6.414;2022-07-23T03:51:12;18.10;99.90
3053;DHT22;1536;51.098;6.414;2022-07-23T03:53:39;18.10;99.90
3053;DHT22;1536;51.098;6.414;2022-07-23T03:56:06;18.10;99.90
3053;DHT22;1536;51.098;6.414;2022-07-23T03:58:34;18.10;99.90
3053;DHT22;1536;51.098;6.414;2022-07-23T04:01:01;18.00;99.90
3053;DHT22;1536;51.098;6.414;2022-07-23T04:03:28;18.00;99.90
3053;DHT22;1536;51.098;6.414;2022-07-23T04:05:55;18.00;99.90
3053;DHT22;1536;51.098;6.414;2022-07-23T04:08:21;18.00;99.90
3053;DHT22;1536;51.098;6.414;2022-07-23T04:10:48;18.00;99.90
3053;DHT22;1536;51.098;6.414;2022-07-23T04:13:15;18.00;99.90
3053;DHT22;1536;51.098;6.414;2022-07-23T04:15:43;18.00;99.90
3053;DHT22;1536;51.098;6.414;2022-07-23T04:18:10;18.00;99.90
3053;DHT22;1536;51.098;6.414;2022-07-23T04:20:37;17.90;99.90
3053;DHT22;1536;51.098;6.414;2022-07-23T04:23:03;17.90;99.90
3053;DHT22;1536;51.098;6.414;2022-07-23T04:25:30;17.90;99.90
3053;DHT22;1536;51.098;6.414;2022-07-23T04:27:57;17.90;99.90
3053;DHT22;1536;51.098;6.414;2022-07-23T04:30:23;17.90;99.90
3053;DHT22;1536;51.098;6.414;2022-07-23T04:32:52;17.80;99.90
3053;DHT22;1536;51.098;6.414;2022-07-23T04:35:18;17.80;99.90
3053;DHT22;1536;51.098;6.414;2022-07-23T04:37:45;17.80;99.90
3053;DHT22;1536;51.098;6.414;2022-07-23T04:40:12;17.80;99.90
3053;DHT22;1536;51.098;6.414;2022-07-23T04:42:40;17.80;99.90
3053;DHT22;1536;51.098;6.414;2022-07-23T04:45:07;17.80;99.90
3053;DHT22;1536;51.098;6.414;2022-07-23T04:47:34;17.80;99.90
3053;DHT22;1536;51.098;6.414;2022-07-23T04:50:04;17.80;99.90
3053;DHT22;1536;51.098;6.414;2022-07-23T04:52:31;17.80;99.90
3053;DHT22;1536;51.098;6.414;2022-07-23T04:54:58;17.80;99.90
3053;DHT22;1536;51.098;6.414;2022-07-23T04:57:25;17.80;99.90
3053;DHT22;1536;51.098;6.414;2022-07-23T04:59:52;17.80;99.90
3053;DHT22;1536;51.098;6.414;2022-07-23T05:02:18;17.80;99.90
3053;DHT22;1536;51.098;6.414;2022-07-23T05:04:45;17.80;99.90
3053;DHT22;1536;51.098;6.414;2022-07-23T05:07:13;17.90;99.90
3053;DHT22;1536;51.098;6.414;2022-07-23T05:09:40;17.90;99.90
3053;DHT22;1536;51.098;6.414;2022-07-23T05:12:07;17.90;99.90
3053;DHT22;1536;51.098;6.414;2022-07-23T05:14:34;17.90;99.90
3053;DHT22;1536;51.098;6.414;2022-07-23T05:17:01;18.00;99.90
3053;DHT22;1536;51.098;6.414;2022-07-23T05:19:28;18.00;99.90
3053;DHT22;1536;51.098;6.414;2022-07-23T05:21:55;18.10;99.90
3053;DHT22;1536;51.098;6.414;2022-07-23T05:24:23;18.10;99.90
3053;DHT22;1536;51.098;6.414;2022-07-23T05:26:49;18.10;99.90
3053;DHT22;1536;51.098;6.414;2022-07-23T05:29:16;18.20;99.90
3053;DHT22;1536;51.098;6.414;2022-07-23T05:31:43;18.20;99.90
3053;DHT22;1536;51.098;6.414;2022-07-23T05:34:10;18.30;99.90
3053;DHT22;1536;51.098;6.414;2022-07-23T05:36:37;18.30;99.90
3053;DHT22;1536;51.098;6.414;2022-07-23T05:39:03;18.30;99.90
3053;DHT22;1536;51.098;6.414;2022-07-23T05:41:32;18.40;99.90
3053;DHT22;1536;51.098;6.414;2022-07-23T05:43:59;18.40;99.90
3053;DHT22;1536;51.098;6.414;2022-07-23T05:46:25;18.50;99.90
3053;DHT22;1536;51.098;6.414;2022-07-23T05:48:52;18.50;99.90
3053;DHT22;1536;51.098;6.414;2022-07-23T05:51:20;18.60;99.90
3053;DHT22;1536;51.098;6.414;2022-07-23T05:53:47;18.60;99.90
3053;DHT22;1536;51.098;6.414;2022-07-23T05:56:14;18.60;99.90
3053;DHT22;1536;51.098;6.414;2022-07-23T05:58:42;18.60;99.90
3053;DHT22;1536;51.098;6.414;2022-07-23T06:01:09;18.70;99.90
3053;DHT22;1536;51.098;6.414;2022-07-23T06:03:37;18.70;99.90
3053;DHT22;1536;51.098;6.414;2022-07-23T06:06:04;18.70;99.90
3053;DHT22;1536;51.098;6.414;2022-07-23T06:08:31;18.70;99.90
3053;DHT22;1536;51.098;6.414;2022-07-23T06:10:58;18.70;99.90
3053;DHT22;1536;51.098;6.414;2022-07-23T06:13:25;18.80;99.90
3053;DHT22;1536;51.098;6.414;2022-07-23T06:15:53;18.80;99.90
3053;DHT22;1536;51.098;6.414;2022-07-23T06:18:20;18.80;99.90
3053;DHT22;1536;51.098;6.414;2022-07-23T06:20:47;18.90;99.90
3053;DHT22;1536;51.098;6.414;2022-07-23T06:23:13;19.00;99.90
3053;DHT22;1536;51.098;6.414;2022-07-23T06:25:40;19.00;99.90
3053;DHT22;1536;51.098;6.414;2022-07-23T06:28:07;19.10;99.90
3053;DHT22;1536;51.098;6.414;2022-07-23T06:30:34;19.10;99.90
3053;DHT22;1536;51.098;6.414;2022-07-23T06:33:02;19.20;99.90
3053;DHT22;1536;51.098;6.414;2022-07-23T06:35:29;19.20;99.90
3053;DHT22;1536;51.098;6.414;2022-07-23T06:37:55;19.20;99.90
3053;DHT22;1536;51.098;6.414;2022-07-23T06:40:23;19.30;99.90
3053;DHT22;1536;51.098;6.414;2022-07-23T06:42:50;19.40;99.90
3053;DHT22;1536;51.098;6.414;2022-07-23T06:45:16;19.40;99.90
3053;DHT22;1536;51.098;6.414;2022-07-23T06:47:43;19.50;99.90
3053;DHT22;1536;51.098;6.414;2022-07-23T06:50:11;19.50;99.90
3053;DHT22;1536;51.098;6.414;2022-07-23T06:52:38;19.50;99.90
3053;DHT22;1536;51.098;6.414;2022-07-23T06:55:06;19.50;99.90
3053;DHT22;1536;51.098;6.414;2022-07-23T06:57:32;19.60;99.90
3053;DHT22;1536;51.098;6.414;2022-07-23T06:59:59;19.60;99.90
3053;DHT22;1536;51.098;6.414;2022-07-23T07:02:26;19.70;99.90
3053;DHT22;1536;51.098;6.414;2022-07-23T07:04:53;19.70;99.90
3053;DHT22;1536;51.098;6.414;2022-07-23T07:07:22;19.80;99.90
3053;DHT22;1536;51.098;6.414;2022-07-23T07:09:49;19.90;99.90
3053;DHT22;1536;51.098;6.414;2022-07-23T07:12:16;19.90;99.90
3053;DHT22;1536;51.098;6.414;2022-07-23T07:14:43;20.00;99.90
3053;DHT22;1536;51.098;6.414;2022-07-23T07:17:10;20.00;99.90
3053;DHT22;1536;51.098;6.414;2022-07-23T07:19:37;20.10;99.90
3053;DHT22;1536;51.098;6.414;2022-07-23T07:22:04;20.10;99.90
3053;DHT22;1536;51.098;6.414;2022-07-23T07:24:32;20.20;99.90
3053;DHT22;1536;51.098;6.414;2022-07-23T07:26:58;20.20;99.90
3053;DHT22;1536;51.098;6.414;2022-07-23T07:29:25;20.30;99.90
3053;DHT22;1536;51.098;6.414;2022-07-23T07:31:52;20.30;99.90
3053;DHT22;1536;51.098;6.414;2022-07-23T07:34:19;20.40;99.90
3053;DHT22;1536;51.098;6.414;2022-07-23T07:36:46;20.50;99.90
3053;DHT22;1536;51.098;6.414;2022-07-23T07:39:13;20.60;99.90
3053;DHT22;1536;51.098;6.414;2022-07-23T07:41:41;20.60;99.90
3053;DHT22;1536;51.098;6.414;2022-07-23T07:44:08;20.70;99.90
3053;DHT22;1536;51.098;6.414;2022-07-23T07:46:35;20.80;99.90
3053;DHT22;1536;51.098;6.414;2022-07-23T07:49:01;20.80;99.90
3053;DHT22;1536;51.098;6.414;2022-07-23T07:51:28;20.80;99.90
3053;DHT22;1536;51.098;6.414;2022-07-23T07:53:55;20.90;99.90
3053;DHT22;1536;51.098;6.414;2022-07-23T07:56:22;21.00;99.90
3053;DHT22;1536;51.098;6.414;2022-07-23T07:58:50;21.00;99.90
3053;DHT22;1536;51.098;6.414;2022-07-23T08:01:17;21.10;99.90
3053;DHT22;1536;51.098;6.414;2022-07-23T08:03:45;21.20;99.90
3053;DHT22;1536;51.098;6.414;2022-07-23T08:06:12;21.20;99.90
3053;DHT22;1536;51.098;6.414;2022-07-23T08:08:38;21.30;99.90
3053;DHT22;1536;51.098;6.414;2022-07-23T08:11:05;21.40;99.90
3053;DHT22;1536;51.098;6.414;2022-07-23T08:13:32;21.50;99.90
3053;DHT22;1536;51.098;6.414;2022-07-23T08:16:01;21.50;99.90
3053;DHT22;1536;51.098;6.414;2022-07-23T08:18:27;21.60;99.90
3053;DHT22;1536;51.098;6.414;2022-07-23T08:20:54;21.60;99.90
3053;DHT22;1536;51.098;6.414;2022-07-23T08:23:21;21.70;99.90
3053;DHT22;1536;51.098;6.414;2022-07-23T08:25:49;21.70;99.90
3053;DHT22;1536;51.098;6.414;2022-07-23T08:28:16;21.80;99.90
3053;DHT22;1536;51.098;6.414;2022-07-23T08:30:44;21.90;99.90
3053;DHT22;1536;51.098;6.414;2022-07-23T08:33:13;21.90;99.90
3053;DHT22;1536;51.098;6.414;2022-07-23T08:35:44;22.00;99.90
3053;DHT22;1536;51.098;6.414;2022-07-23T08:38:13;22.10;99.90
3053;DHT22;1536;51.098;6.414;2022-07-23T08:40:42;22.10;99.90
3053;DHT22;1536;51.098;6.414;2022-07-23T08:43:12;22.10;99.90
3053;DHT22;1536;51.098;6.414;2022-07-23T08:45:41;22.10;99.90
3053;DHT22;1536;51.098;6.414;2022-07-23T08:48:13;22.20;99.90
3053;DHT22;1536;51.098;6.414;2022-07-23T08:50:42;22.20;99.90
3053;DHT22;1536;51.098;6.414;2022-07-23T08:53:10;22.30;99.90
3053;DHT22;1536;51.098;6.414;2022-07-23T08:55:37;22.40;99.90
3053;DHT22;1536;51.098;6.414;2022-07-23T08:58:04;22.40;99.90
3053;DHT22;1536;51.098;6.414;2022-07-23T09:00:31;22.50;99.90
3053;DHT22;1536;51.098;6.414;2022-07-23T09:02:58;22.50;99.90
3053;DHT22;1536;51.098;6.414;2022-07-23T09:05:27;22.60;99.90
3053;DHT22;1536;51.098;6.414;2022-07-23T09:08:15;22.70;99.90
3053;DHT22;1536;51.098;6.414;2022-07-23T09:10:47;22.70;99.90
3053;DHT22;1536;51.098;6.414;2022-07-23T09:13:39;22.80;99.90
3053;DHT22;1536;51.098;6.414;2022-07-23T09:16:08;22.80;99.90
3053;DHT22;1536;51.098;6.414;2022-07-23T09:18:41;22.90;99.90
3053;DHT22;1536;51.098;6.414;2022-07-23T09:21:16;22.90;99.90
3053;DHT22;1536;51.098;6.414;2022-07-23T09:23:45;22.90;99.90
3053;DHT22;1536;51.098;6.414;2022-07-23T09:26:27;23.00;99.90
3053;DHT22;1536;51.098;6.414;2022-07-23T09:28:59;23.10;99.90
3053;DHT22;1536;51.098;6.414;2022-07-23T09:31:32;23.10;99.90
3053;DHT22;1536;51.098;6.414;2022-07-23T09:34:11;23.20;99.90
3053;DHT22;1536;51.098;6.414;2022-07-23T09:36:40;23.30;99.90
3053;DHT22;1536;51.098;6.414;2022-07-23T09:39:07;23.40;99.90
3053;DHT22;1536;51.098;6.414;2022-07-23T09:41:40;23.40;99.90
3053;DHT22;1536;51.098;6.414;2022-07-23T09:44:14;23.50;99.90
3053;DHT22;1536;51.098;6.414;2022-07-23T09:46:42;23.50;99.90
3053;DHT22;1536;51.098;6.414;2022-07-23T09:49:11;23.60;99.90
3053;DHT22;1536;51.098;6.414;2022-07-23T09:51:46;23.70;99.90
3053;DHT22;1536;51.098;6.414;2022-07-23T09:54:30;23.70;99.90
3053;DHT22;1536;51.098;6.414;2022-07-23T09:57:00;23.80;99.90
3053;DHT22;1536;51.098;6.414;2022-07-23T09:59:29;23.80;99.90
3053;DHT22;1536;51.098;6.414;2022-07-23T10:01:59;23.90;99.90
3053;DHT22;1536;51.098;6.414;2022-07-23T10:04:28;23.90;99.90
3053;DHT22;1536;51.098;6.414;2022-07-23T10:06:58;24.00;99.90
3053;DHT22;1536;51.098;6.414;2022-07-23T10:09:27;24.00;99.90
3053;DHT22;1536;51.098;6.414;2022-07-23T10:11:58;24.10;99.90
3053;DHT22;1536;51.098;6.414;2022-07-23T10:14:30;24.10;99.90
3053;DHT22;1536;51.098;6.414;2022-07-23T10:17:00;24.10;99.90
3053;DHT22;1536;51.098;6.414;2022-07-23T10:19:28;24.20;99.90
3053;DHT22;1536;51.098;6.414;2022-07-23T10:22:00;24.20;99.90
3053;DHT22;1536;51.098;6.414;2022-07-23T10:25:04;24.30;99.90
3053;DHT22;1536;51.098;6.414;2022-07-23T10:27:51;24.40;99.90
3053;DHT22;1536;51.098;6.414;2022-07-23T10:30:25;24.40;99.90
3053;DHT22;1536;51.098;6.414;2022-07-23T10:33:04;24.40;99.90
3053;DHT22;1536;51.098;6.414;2022-07-23T10:35:39;24.40;99.90
3053;DHT22;1536;51.098;6.414;2022-07-23T10:38:20;24.50;99.90
3053;DHT22;1536;51.098;6.414;2022-07-23T10:40:55;24.50;99.90
3053;DHT22;1536;51.098;6.414;2022-07-23T10:43:22;24.60;99.90
3053;DHT22;1536;51.098;6.414;2022-07-23T10:45:50;24.60;99.90
3053;DHT22;1536;51.098;6.414;2022-07-23T10:48:18;24.70;99.90
3053;DHT22;1536;51.098;6.414;2022-07-23T10:51:07;24.70;99.90
3053;DHT22;1536;51.098;6.414;2022-07-23T10:53:57;24.70;99.90
3053;DHT22;1536;51.098;6.414;2022-07-23T10:56:49;24.80;99.90
3053;DHT22;1536;51.098;6.414;2022-07-23T10:59:15;24.90;99.90
3053;DHT22;1536;51.098;6.414;2022-07-23T11:01:42;24.90;99.90
3053;DHT22;1536;51.098;6.414;2022-07-23T11:04:09;25.00;99.90
3053;DHT22;1536;51.098;6.414;2022-07-23T11:07:07;25.10;99.90
3053;DHT22;1536;51.098;6.414;2022-07-23T11:09:42;25.20;99.90
3053;DHT22;1536;51.098;6.414;2022-07-23T11:12:31;25.20;99.90
3053;DHT22;1536;51.098;6.414;2022-07-23T11:14:58;25.20;99.90
3053;DHT22;1536;51.098;6.414;2022-07-23T11:17:26;25.30;99.90
3053;DHT22;1536;51.098;6.414;2022-07-23T11:20:16;25.30;99.90
3053;DHT22;1536;51.098;6.414;2022-07-23T11:22:48;25.30;99.90
3053;DHT22;1536;51.098;6.414;2022-07-23T11:25:32;25.30;99.90
3053;DHT22;1536;51.098;6.414;2022-07-23T11:28:11;25.30;99.90
3053;DHT22;1536;51.098;6.414;2022-07-23T11:30:40;25.40;99.90
3053;DHT22;1536;51.098;6.414;2022-07-23T11:33:19;25.50;99.90
3053;DHT22;1536;51.098;6.414;2022-07-23T11:35:47;25.50;99.90
3053;DHT22;1536;51.098;6.414;2022-07-23T11:38:16;25.50;99.90
3053;DHT22;1536;51.098;6.414;2022-07-23T11:40:47;25.50;99.90
3053;DHT22;1536;51.098;6.414;2022-07-23T11:43:15;25.50;99.90
3053;DHT22;1536;51.098;6.414;2022-07-23T11:45:43;25.50;99.40
3053;DHT22;1536;51.098;6.414;2022-07-23T11:48:19;25.50;99.90
3053;DHT22;1536;51.098;6.414;2022-07-23T11:50:47;25.60;99.80
3053;DHT22;1536;51.098;6.414;2022-07-23T11:53:21;25.60;99.90
3053;DHT22;1536;51.098;6.414;2022-07-23T11:55:50;25.70;99.40
3053;DHT22;1536;51.098;6.414;2022-07-23T11:58:17;25.70;98.50
3053;DHT22;1536;51.098;6.414;2022-07-23T12:00:44;25.70;98.90
3053;DHT22;1536;51.098;6.414;2022-07-23T12:03:11;25.80;99.70
3053;DHT22;1536;51.098;6.414;2022-07-23T12:05:38;25.90;99.20
3053;DHT22;1536;51.098;6.414;2022-07-23T12:08:08;25.90;98.60
3053;DHT22;1536;51.098;6.414;2022-07-23T12:10:37;25.90;97.90
3053;DHT22;1536;51.098;6.414;2022-07-23T12:13:07;25.90;98.60
3053;DHT22;1536;51.098;6.414;2022-07-23T12:15:51;25.90;97.70
3053;DHT22;1536;51.098;6.414;2022-07-23T12:18:20;25.90;97.50
3053;DHT22;1536;51.098;6.414;2022-07-23T12:20:49;26.00;97.80
3053;DHT22;1536;51.098;6.414;2022-07-23T12:23:18;26.00;97.90
3053;DHT22;1536;51.098;6.414;2022-07-23T12:25:46;26.00;97.40
3053;DHT22;1536;51.098;6.414;2022-07-23T12:28:16;26.10;97.90
3053;DHT22;1536;51.098;6.414;2022-07-23T12:30:45;26.10;97.90
3053;DHT22;1536;51.098;6.414;2022-07-23T12:33:14;26.20;98.30
3053;DHT22;1536;51.098;6.414;2022-07-23T12:35:43;26.20;98.40
3053;DHT22;1536;51.098;6.414;2022-07-23T12:38:12;26.30;98.10
3053;DHT22;1536;51.098;6.414;2022-07-23T12:40:43;26.40;97.80
3053;DHT22;1536;51.098;6.414;2022-07-23T12:43:17;26.50;97.60
3053;DHT22;1536;51.098;6.414;2022-07-23T12:45:47;26.50;97.70
3053;DHT22;1536;51.098;6.414;2022-07-23T12:48:23;26.60;97.30
3053;DHT22;1536;51.098;6.414;2022-07-23T12:50:52;26.60;97.00
3053;DHT22;1536;51.098;6.414;2022-07-23T12:53:20;26.60;97.40
3053;DHT22;1536;51.098;6.414;2022-07-23T12:55:49;26.70;97.20
3053;DHT22;1536;51.098;6.414;2022-07-23T12:58:17;26.70;97.40
3053;DHT22;1536;51.098;6.414;2022-07-23T13:00:58;26.70;97.70
3053;DHT22;1536;51.098;6.414;2022-07-23T13:03:29;26.80;97.90
3053;DHT22;1536;51.098;6.414;2022-07-23T13:05:57;26.90;98.20
3053;DHT22;1536;51.098;6.414;2022-07-23T13:08:25;26.90;97.50
3053;DHT22;1536;51.098;6.414;2022-07-23T13:10:54;26.90;97.10
3053;DHT22;1536;51.098;6.414;2022-07-23T13:13:22;26.90;96.00
3053;DHT22;1536;51.098;6.414;2022-07-23T13:15:50;27.00;96.20
3053;DHT22;1536;51.098;6.414;2022-07-23T13:18:19;27.00;95.50
3053;DHT22;1536;51.098;6.414;2022-07-23T13:20:47;26.90;95.30
3053;DHT22;1536;51.098;6.414;2022-07-23T13:23:14;26.90;95.40
3053;DHT22;1536;51.098;6.414;2022-07-23T13:25:41;26.90;95.80
3053;DHT22;1536;51.098;6.414;2022-07-23T13:28:08;27.00;95.90
3053;DHT22;1536;51.098;6.414;2022-07-23T13:30:35;27.00;95.70
3053;DHT22;1536;51.098;6.414;2022-07-23T13:33:03;27.10;95.90
3053;DHT22;1536;51.098;6.414;2022-07-23T13:35:31;27.10;96.20
3053;DHT22;1536;51.098;6.414;2022-07-23T13:37:58;27.20;95.90
3053;DHT22;1536;51.098;6.414;2022-07-23T13:40:25;27.20;95.70
3053;DHT22;1536;51.098;6.414;2022-07-23T13:42:52;27.20;95.50
3053;DHT22;1536;51.098;6.414;2022-07-23T13:45:19;27.20;94.80
3053;DHT22;1536;51.098;6.414;2022-07-23T13:47:46;27.30;95.20
3053;DHT22;1536;51.098;6.414;2022-07-23T13:50:13;27.30;95.30
3053;DHT22;1536;51.098;6.414;2022-07-23T13:52:43;27.30;95.60
3053;DHT22;1536;51.098;6.414;2022-07-23T13:55:10;27.30;95.10
3053;DHT22;1536;51.098;6.414;2022-07-23T13:57:37;27.40;94.50
3053;DHT22;1536;51.098;6.414;2022-07-23T14:00:05;27.40;94.60
3053;DHT22;1536;51.098;6.414;2022-07-23T14:02:35;27.40;94.80
3053;DHT22;1536;51.098;6.414;2022-07-23T14:05:03;27.30;94.60
3053;DHT22;1536;51.098;6.414;2022-07-23T14:07:29;27.30;94.80
3053;DHT22;1536;51.098;6.414;2022-07-23T14:09:58;27.20;94.50
3053;DHT22;1536;51.098;6.414;2022-07-23T14:12:25;27.20;94.40
3053;DHT22;1536;51.098;6.414;2022-07-23T14:14:52;27.30;94.50
3053;DHT22;1536;51.098;6.414;2022-07-23T14:17:18;27.40;94.30
3053;DHT22;1536;51.098;6.414;2022-07-23T14:19:45;27.40;93.80
3053;DHT22;1536;51.098;6.414;2022-07-23T14:22:12;27.40;92.90
3053;DHT22;1536;51.098;6.414;2022-07-23T14:24:39;27.40;93.50
3053;DHT22;1536;51.098;6.414;2022-07-23T14:27:07;27.30;93.50
3053;DHT22;1536;51.098;6.414;2022-07-23T14:29:35;27.40;93.60
3053;DHT22;1536;51.098;6.414;2022-07-23T14:32:03;27.40;93.70
3053;DHT22;1536;51.098;6.414;2022-07-23T14:34:30;27.40;94.00
3053;DHT22;1536;51.098;6.414;2022-07-23T14:36:58;27.40;93.90
3053;DHT22;1536;51.098;6.414;2022-07-23T14:39:25;27.40;93.80
3053;DHT22;1536;51.098;6.414;2022-07-23T14:41:51;27.40;93.90
3053;DHT22;1536;51.098;6.414;2022-07-23T14:44:20;27.40;94.60
3053;DHT22;1536;51.098;6.414;2022-07-23T14:46:46;27.40;94.10
3053;DHT22;1536;51.098;6.414;2022-07-23T14:49:13;27.50;93.00
3053;DHT22;1536;51.098;6.414;2022-07-23T14:51:40;27.50;93.30
3053;DHT22;1536;51.098;6.414;2022-07-23T14:54:07;27.40;93.10
3053;DHT22;1536;51.098;6.414;2022-07-23T14:56:34;27.40;93.10
3053;DHT22;1536;51.098;6.414;2022-07-23T14:59:02;27.40;92.80
3053;DHT22;1536;51.098;6.414;2022-07-23T15:01:30;27.40;92.70
3053;DHT22;1536;51.098;6.414;2022-07-23T15:03:57;27.50;92.90
3053;DHT22;1536;51.098;6.414;2022-07-23T15:06:23;27.60;93.20
3053;DHT22;1536;51.098;6.414;2022-07-23T15:08:50;27.70;93.50
3053;DHT22;1536;51.098;6.414;2022-07-23T15:11:17;27.70;93.50
3053;DHT22;1536;51.098;6.414;2022-07-23T15:13:44;27.70;93.50
3053;DHT22;1536;51.098;6.414;2022-07-23T15:16:11;27.60;93.10
3053;DHT22;1536;51.098;6.414;2022-07-23T15:18:39;27.50;92.80
3053;DHT22;1536;51.098;6.414;2022-07-23T15:21:06;27.40;92.80
3053;DHT22;1536;51.098;6.414;2022-07-23T15:23:33;27.30;92.60
3053;DHT22;1536;51.098;6.414;2022-07-23T15:26:00;27.20;92.50
3053;DHT22;1536;51.098;6.414;2022-07-23T15:28:27;27.10;92.50
3053;DHT22;1536;51.098;6.414;2022-07-23T15:30:54;27.10;92.70
3053;DHT22;1536;51.098;6.414;2022-07-23T15:33:21;27.20;92.80
3053;DHT22;1536;51.098;6.414;2022-07-23T15:35:49;27.30;92.70
3053;DHT22;1536;51.098;6.414;2022-07-23T15:38:18;27.40;92.50
3053;DHT22;1536;51.098;6.414;2022-07-23T15:40:45;27.40;92.20
3053;DHT22;1536;51.098;6.414;2022-07-23T15:43:12;27.60;92.20
3053;DHT22;1536;51.098;6.414;2022-07-23T15:45:39;27.70;92.70
3053;DHT22;1536;51.098;6.414;2022-07-23T15:48:06;27.70;92.40
3053;DHT22;1536;51.098;6.414;2022-07-23T15:50:33;27.70;92.80
3053;DHT22;1536;51.098;6.414;2022-07-23T15:53:01;27.70;92.00
3053;DHT22;1536;51.098;6.414;2022-07-23T15:55:28;27.70;91.80
3053;DHT22;1536;51.098;6.414;2022-07-23T15:57:56;27.60;92.00
3053;DHT22;1536;51.098;6.414;2022-07-23T16:00:23;27.50;92.20
3053;DHT22;1536;51.098;6.414;2022-07-23T16:02:49;27.40;92.30
3053;DHT22;1536;51.098;6.414;2022-07-23T16:05:16;27.50;92.40
3053;DHT22;1536;51.098;6.414;2022-07-23T16:07:59;27.60;92.30
3053;DHT22;1536;51.098;6.414;2022-07-23T16:10:27;27.60;92.70